Time;durP1;ratioP1;P1;durP2;ratioP2;P2;SDS_P1;SDS_P2;PMS_P1;PMS_P2;Temp;Humidity;BMP_temperature;BMP_pressure;BME280_temperature;BME280_humidity;BME280_pressure;Samples;Min_cycle;Max_cycle;Signal;HPM_P1;HPM_P2
2022/09/08 00:01:28;;;;;;;9.52;4.85;;;19.10;99.90;;;;;;5119381;28;20173;-68
2022/09/08 00:03:54;;;;;;;12.27;5.55;;;19.20;99.90;;;;;;5119362;28;20035;-68
2022/09/08 00:06:21;;;;;;;8.55;5.90;;;19.20;99.90;;;;;;5119376;28;20036;-68
2022/09/08 00:08:48;;;;;;;9.68;6.22;;;19.30;99.90;;;;;;5119236;28;20340;-68
2022/09/08 00:11:23;;;;;;;9.43;5.93;;;19.20;99.90;;;;;;5118969;28;20351;-68
2022/09/08 00:13:49;;;;;;;13.03;5.13;;;19.20;99.90;;;;;;5119347;28;20043;-68
2022/09/08 00:16:19;;;;;;;6.35;4.93;;;19.20;99.90;;;;;;5118684;28;20524;-68
2022/09/08 00:18:45;;;;;;;9.60;4.85;;;19.20;99.90;;;;;;5118719;28;20092;-67
2022/09/08 00:21:11;;;;;;;9.20;4.75;;;19.10;99.90;;;;;;5118800;28;20075;-68
2022/09/08 00:23:37;;;;;;;10.07;5.35;;;19.00;99.90;;;;;;5118806;28;20071;-68
2022/09/08 00:26:03;;;;;;;11.18;5.70;;;19.00;99.90;;;;;;5118586;28;20092;-68
2022/09/08 00:28:30;;;;;;;11.13;6.13;;;19.00;99.90;;;;;;5118681;28;20036;-68
2022/09/08 00:30:55;;;;;;;9.65;6.25;;;18.90;99.90;;;;;;5118835;28;20035;-68
2022/09/08 00:33:22;;;;;;;7.68;5.88;;;18.90;99.90;;;;;;5118713;28;20046;-67
2022/09/08 00:35:49;;;;;;;9.40;5.35;;;18.90;99.90;;;;;;5118614;28;20040;-67
2022/09/08 00:38:15;;;;;;;12.73;6.65;;;18.90;99.90;;;;;;5118505;28;20051;-68
2022/09/08 00:40:47;;;;;;;11.63;6.07;;;18.90;99.90;;;;;;5118311;28;20060;-68
2022/09/08 00:43:33;;;;;;;11.60;7.35;;;18.90;99.90;;;;;;5118295;28;20105;-68
2022/09/08 00:46:18;;;;;;;14.45;8.13;;;18.90;99.90;;;;;;5118282;28;20501;-68
2022/09/08 00:49:08;;;;;;;13.52;8.73;;;18.90;99.90;;;;;;5117217;28;20042;-68
2022/09/08 00:51:38;;;;;;;12.65;8.63;;;18.90;99.90;;;;;;5118438;28;20036;-68
2022/09/08 00:54:05;;;;;;;14.07;8.52;;;18.90;99.90;;;;;;5118101;28;20046;-68
2022/09/08 00:56:32;;;;;;;13.75;8.98;;;18.90;99.90;;;;;;5117863;28;20043;-68
2022/09/08 00:59:00;;;;;;;13.02;9.35;;;18.90;99.90;;;;;;5118234;28;20040;-68
2022/09/08 01:01:25;;;;;;;13.88;10.00;;;18.90;99.90;;;;;;5118224;28;20036;-68
2022/09/08 01:03:52;;;;;;;16.50;10.32;;;18.90;99.90;;;;;;5117868;28;20309;-68
2022/09/08 01:12:56;;;;;;;16.58;11.95;;;18.80;99.90;;;;;;5117848;28;20058;-68
2022/09/08 01:15:26;;;;;;;15.52;11.63;;;18.80;99.90;;;;;;5117880;28;20035;-68
2022/09/08 01:17:54;;;;;;;17.00;13.15;;;18.80;99.90;;;;;;5118003;28;20040;-68
2022/09/08 01:20:35;;;;;;;21.80;16.42;;;18.80;99.90;;;;;;5117642;28;20417;-68
2022/09/08 01:23:07;;;;;;;22.95;17.08;;;18.80;99.90;;;;;;5118005;28;20071;-68
2022/09/08 01:25:53;;;;;;;23.70;17.02;;;18.90;99.90;;;;;;5117346;28;20059;-68
2022/09/08 01:28:27;;;;;;;22.75;17.30;;;18.90;99.90;;;;;;5117632;28;20114;-68
2022/09/08 01:30:54;;;;;;;23.92;17.20;;;18.90;99.90;;;;;;5117715;28;20051;-68
2022/09/08 01:33:21;;;;;;;27.85;19.70;;;18.90;99.90;;;;;;5117575;28;20122;-68
2022/09/08 01:35:47;;;;;;;27.10;21.63;;;19.00;99.90;;;;;;5117761;28;20051;-68
2022/09/08 01:38:12;;;;;;;28.70;21.38;;;19.10;99.90;;;;;;5117287;28;20043;-68
2022/09/08 01:40:39;;;;;;;29.58;22.30;;;19.20;99.90;;;;;;5116203;28;20097;-68
2022/09/08 01:43:08;;;;;;;31.25;23.88;;;19.20;99.90;;;;;;5117314;28;20412;-68
2022/09/08 01:45:34;;;;;;;34.45;26.35;;;19.20;99.90;;;;;;5117285;28;20420;-68
2022/09/08 01:48:00;;;;;;;42.10;28.23;;;19.20;99.90;;;;;;5117220;28;20118;-68
2022/09/08 01:50:26;;;;;;;40.03;29.85;;;19.20;99.90;;;;;;5117564;28;20074;-68
2022/09/08 01:52:52;;;;;;;40.33;29.25;;;19.10;99.90;;;;;;5116336;28;20089;-68
2022/09/08 01:55:17;;;;;;;37.85;28.77;;;19.30;99.90;;;;;;5098717;28;20046;-68
2022/09/08 01:57:43;;;;;;;41.65;29.92;;;19.20;99.90;;;;;;5116966;28;20043;-68
2022/09/08 02:00:10;;;;;;;39.58;29.38;;;19.20;99.90;;;;;;5117154;28;20408;-68
2022/09/08 02:02:36;;;;;;;34.47;26.65;;;19.30;99.90;;;;;;5117259;28;20059;-68
2022/09/08 02:05:01;;;;;;;44.90;33.83;;;19.30;99.90;;;;;;5117039;28;20040;-68
2022/09/08 02:07:27;;;;;;;35.63;27.73;;;19.40;99.90;;;;;;5117240;28;20035;-68
2022/09/08 02:09:53;;;;;;;40.38;29.90;;;19.50;99.90;;;;;;5117029;28;20036;-68
2022/09/08 02:12:19;;;;;;;37.88;28.65;;;19.50;99.90;;;;;;5116773;28;20454;-68
2022/09/08 02:14:45;;;;;;;35.10;27.67;;;19.50;99.90;;;;;;5117199;28;20040;-68
2022/09/08 02:17:11;;;;;;;37.33;29.45;;;19.60;99.90;;;;;;5117146;28;20043;-68
2022/09/08 02:19:37;;;;;;;41.30;31.70;;;19.60;99.90;;;;;;5117022;28;20042;-68
2022/09/08 02:22:03;;;;;;;49.00;34.38;;;19.60;99.90;;;;;;5116863;28;20036;-68
2022/09/08 02:24:29;;;;;;;45.35;31.90;;;19.60;99.90;;;;;;5116650;28;20036;-68
2022/09/08 02:26:55;;;;;;;50.70;36.03;;;19.60;99.90;;;;;;5116888;28;20040;-68
2022/09/08 02:29:21;;;;;;;43.35;31.75;;;19.60;99.90;;;;;;5117144;28;20057;-68
2022/09/08 02:31:47;;;;;;;49.25;36.13;;;19.70;99.90;;;;;;5116862;28;20035;-68
2022/09/08 02:34:13;;;;;;;41.97;31.98;;;19.70;99.90;;;;;;5116011;28;20461;-68
2022/09/08 02:36:39;;;;;;;44.85;33.88;;;19.70;99.90;;;;;;5116857;28;20088;-68
2022/09/08 02:39:04;;;;;;;44.83;34.10;;;19.80;99.90;;;;;;5116418;28;20052;-68
2022/09/08 02:41:30;;;;;;;43.13;33.00;;;19.80;99.90;;;;;;5119836;28;20048;-68
2022/09/08 02:43:56;;;;;;;53.28;38.20;;;19.80;99.90;;;;;;5120740;28;20160;-68
2022/09/08 02:46:23;;;;;;;45.50;33.50;;;19.80;99.90;;;;;;5121050;28;20036;-68
2022/09/08 02:48:48;;;;;;;48.85;34.10;;;19.80;99.90;;;;;;5120640;28;20416;-68
2022/09/08 02:51:18;;;;;;;43.92;32.97;;;19.80;99.90;;;;;;5120795;28;20043;-68
2022/09/08 02:53:44;;;;;;;41.70;32.03;;;19.80;99.90;;;;;;5119544;28;20440;-68
2022/09/08 02:56:10;;;;;;;49.53;34.60;;;19.80;99.90;;;;;;5118871;28;20046;-68
2022/09/08 02:58:36;;;;;;;44.92;33.03;;;19.70;99.90;;;;;;5120741;28;20047;-68
2022/09/08 03:01:04;;;;;;;50.05;37.45;;;19.70;99.90;;;;;;5119277;28;20039;-68
2022/09/08 03:03:29;;;;;;;50.97;35.30;;;19.80;99.90;;;;;;5120714;27;20043;-68
2022/09/08 03:05:55;;;;;;;54.20;36.67;;;19.80;99.90;;;;;;5120383;28;20310;-68
2022/09/08 03:08:24;;;;;;;42.60;31.20;;;19.80;99.90;;;;;;5120491;28;20088;-68
2022/09/08 03:10:50;;;;;;;44.88;34.00;;;19.80;99.90;;;;;;5120155;28;20043;-68
2022/09/08 03:13:17;;;;;;;56.15;38.28;;;19.90;99.90;;;;;;5120392;28;20043;-68
2022/09/08 03:15:43;;;;;;;56.88;40.60;;;19.90;99.90;;;;;;5120289;28;20428;-68
2022/09/08 03:18:10;;;;;;;50.95;37.15;;;19.90;99.90;;;;;;5119993;28;20487;-68
2022/09/08 03:20:37;;;;;;;60.08;41.78;;;19.80;99.90;;;;;;5118970;28;20039;-68
2022/09/08 03:23:03;;;;;;;52.30;38.55;;;19.90;99.90;;;;;;5120173;28;20082;-68
2022/09/08 03:25:30;;;;;;;50.97;37.90;;;19.80;99.90;;;;;;5119657;28;20051;-68
2022/09/08 03:27:55;;;;;;;57.78;38.92;;;19.90;99.90;;;;;;5119816;27;20042;-68
2022/09/08 03:30:22;;;;;;;61.67;42.30;;;19.90;99.90;;;;;;5119958;28;20044;-68
2022/09/08 03:32:49;;;;;;;49.35;34.83;;;19.90;99.90;;;;;;5118732;28;20053;-68
2022/09/08 03:35:17;;;;;;;49.13;35.45;;;19.90;99.90;;;;;;5119925;28;20044;-68
2022/09/08 03:37:44;;;;;;;48.25;34.58;;;19.90;99.90;;;;;;5118693;28;20039;-68
2022/09/08 03:40:13;;;;;;;59.78;41.45;;;19.80;99.90;;;;;;5119295;28;20131;-68
2022/09/08 03:42:40;;;;;;;61.67;42.45;;;19.80;99.90;;;;;;5119836;27;20043;-68
2022/09/08 03:45:10;;;;;;;59.10;43.75;;;19.80;99.90;;;;;;5119671;28;20089;-68
2022/09/08 03:47:37;;;;;;;53.70;38.53;;;19.70;99.90;;;;;;5119543;28;20042;-68
2022/09/08 03:50:04;;;;;;;55.78;40.60;;;19.70;99.90;;;;;;5119392;28;20441;-68
2022/09/08 03:52:30;;;;;;;53.13;38.92;;;19.70;99.90;;;;;;5118277;28;20071;-68
2022/09/08 03:54:57;;;;;;;54.22;40.38;;;19.70;99.90;;;;;;5119253;28;20334;-68
2022/09/08 03:57:25;;;;;;;57.05;41.53;;;19.80;99.90;;;;;;5118265;28;20104;-68
2022/09/08 03:59:53;;;;;;;56.20;39.15;;;19.80;99.90;;;;;;5119532;28;20050;-68
2022/09/08 04:02:21;;;;;;;55.88;41.65;;;19.80;99.90;;;;;;5119222;28;20542;-68
2022/09/08 04:04:48;;;;;;;57.75;40.75;;;19.80;99.90;;;;;;5119174;28;20040;-68
2022/09/08 04:07:15;;;;;;;55.30;38.65;;;19.80;99.90;;;;;;5119026;28;20050;-68
2022/09/08 04:09:42;;;;;;;49.90;36.88;;;19.90;99.90;;;;;;5119331;28;20047;-68
2022/09/08 04:12:08;;;;;;;64.70;43.63;;;19.90;99.90;;;;;;5119236;28;20070;-68
2022/09/08 04:14:34;;;;;;;50.03;37.40;;;19.90;99.90;;;;;;5119064;28;20031;-68
2022/09/08 04:17:00;;;;;;;63.35;45.03;;;19.90;99.90;;;;;;5119077;28;20329;-68
2022/09/08 04:19:26;;;;;;;56.45;40.28;;;19.90;99.90;;;;;;5118776;28;20032;-68
2022/09/08 04:21:52;;;;;;;56.72;41.78;;;19.90;99.90;;;;;;5118836;28;20051;-68
2022/09/08 04:24:18;;;;;;;60.65;43.30;;;19.90;99.90;;;;;;5118985;28;20038;-68
2022/09/08 04:26:45;;;;;;;56.80;39.40;;;19.90;99.90;;;;;;5118704;28;20054;-68
2022/09/08 04:29:10;;;;;;;50.70;39.20;;;20.00;99.90;;;;;;5118748;28;20035;-68
2022/09/08 04:31:36;;;;;;;56.53;39.05;;;20.00;99.90;;;;;;5118791;28;20101;-68
2022/09/08 04:34:03;;;;;;;50.25;37.55;;;20.00;99.90;;;;;;5118549;28;20353;-68
2022/09/08 04:36:30;;;;;;;50.40;37.80;;;20.00;99.90;;;;;;5117545;28;20392;-68
2022/09/08 04:39:00;;;;;;;57.70;41.03;;;20.00;99.90;;;;;;5118676;27;20406;-68
2022/09/08 04:41:28;;;;;;;51.58;38.22;;;20.00;99.90;;;;;;5118539;28;20044;-68
2022/09/08 04:43:57;;;;;;;52.47;38.63;;;20.10;99.90;;;;;;5118519;28;20039;-68
2022/09/08 04:46:23;;;;;;;50.53;38.30;;;20.10;99.90;;;;;;5118365;28;20031;-68
2022/09/08 04:48:49;;;;;;;48.63;37.80;;;20.10;99.90;;;;;;5118427;28;20050;-68
2022/09/08 04:51:17;;;;;;;52.20;39.25;;;20.00;99.90;;;;;;5118330;28;20040;-68
2022/09/08 04:53:43;;;;;;;46.40;36.38;;;20.10;99.90;;;;;;5118460;28;20131;-68
2022/09/08 04:56:10;;;;;;;51.38;37.97;;;20.00;99.90;;;;;;5118063;28;20047;-68
2022/09/08 04:58:39;;;;;;;61.45;43.80;;;20.00;99.90;;;;;;5118247;28;20035;-68
2022/09/08 05:01:12;;;;;;;54.45;38.38;;;20.00;99.90;;;;;;5118028;28;20039;-68
2022/09/08 05:03:39;;;;;;;64.53;46.63;;;20.00;99.90;;;;;;5117752;28;20046;-68
2022/09/08 05:06:07;;;;;;;55.97;40.20;;;20.00;99.90;;;;;;5118042;28;20093;-68
2022/09/08 05:08:32;;;;;;;54.05;37.92;;;20.00;99.90;;;;;;5118219;28;20044;-68
2022/09/08 05:10:59;;;;;;;54.30;40.90;;;20.00;99.90;;;;;;5118062;28;20393;-68
2022/09/08 05:13:25;;;;;;;58.20;41.60;;;20.00;99.90;;;;;;5118131;28;20123;-68
2022/09/08 05:15:51;;;;;;;55.38;42.03;;;20.00;99.90;;;;;;5117869;28;20122;-68
2022/09/08 05:18:16;;;;;;;51.88;38.45;;;20.00;99.90;;;;;;5118024;28;20044;-68
2022/09/08 05:20:42;;;;;;;51.40;38.50;;;20.00;99.90;;;;;;5116772;28;20040;-68
2022/09/08 05:23:08;;;;;;;55.45;41.50;;;20.10;99.90;;;;;;5118027;28;20048;-68
2022/09/08 05:25:33;;;;;;;54.17;39.95;;;20.10;99.90;;;;;;5117169;28;20040;-69
2022/09/08 05:27:59;;;;;;;52.67;40.40;;;20.10;99.90;;;;;;5117591;28;20044;-68
2022/09/08 05:30:25;;;;;;;50.90;37.90;;;20.10;99.90;;;;;;5117314;28;20039;-68
2022/09/08 05:32:50;;;;;;;53.22;41.20;;;20.00;99.90;;;;;;5117584;28;20035;-68
2022/09/08 05:35:16;;;;;;;54.25;41.63;;;20.10;99.90;;;;;;5117742;28;20066;-68
2022/09/08 05:37:42;;;;;;;61.20;42.60;;;20.00;99.90;;;;;;5117270;28;20459;-68
2022/09/08 05:40:08;;;;;;;52.38;39.38;;;20.00;99.90;;;;;;5117111;28;20055;-68
2022/09/08 05:42:35;;;;;;;56.88;41.05;;;20.00;99.90;;;;;;5117441;27;20074;-68
2022/09/08 05:45:00;;;;;;;56.80;41.25;;;20.10;99.90;;;;;;5117244;28;20067;-68
2022/09/08 05:47:26;;;;;;;62.38;43.83;;;20.00;99.90;;;;;;5117336;28;20028;-68
2022/09/08 05:49:52;;;;;;;50.85;39.72;;;20.00;99.90;;;;;;5117375;28;20117;-68
2022/09/08 05:52:18;;;;;;;48.70;38.17;;;20.10;99.90;;;;;;5117166;28;20048;-68
2022/09/08 05:54:44;;;;;;;55.97;39.33;;;20.20;99.90;;;;;;5117070;28;20047;-68
2022/09/08 05:57:09;;;;;;;49.50;39.45;;;20.20;99.90;;;;;;5117180;28;20039;-68
2022/09/08 05:59:35;;;;;;;52.75;39.70;;;20.20;99.90;;;;;;5116127;28;20092;-68
2022/09/08 06:02:01;;;;;;;50.90;38.10;;;20.20;99.90;;;;;;5116145;28;20039;-68
2022/09/08 06:04:27;;;;;;;52.47;38.95;;;20.20;99.90;;;;;;5117380;28;20118;-68
2022/09/08 06:06:52;;;;;;;55.53;40.80;;;20.20;99.90;;;;;;5117072;28;20043;-68
2022/09/08 06:09:18;;;;;;;53.75;40.65;;;20.20;99.90;;;;;;5117099;28;20484;-68
2022/09/08 06:11:43;;;;;;;54.70;41.90;;;20.20;99.90;;;;;;5117218;28;20119;-68
2022/09/08 06:14:10;;;;;;;54.53;38.97;;;20.10;99.90;;;;;;5116614;28;20047;-68
2022/09/08 06:16:36;;;;;;;59.78;42.95;;;20.00;99.90;;;;;;5149764;27;20320;-68
2022/09/08 06:19:02;;;;;;;56.03;42.30;;;20.10;99.90;;;;;;5117022;28;20048;-68
2022/09/08 06:21:32;;;;;;;52.45;38.67;;;20.10;99.90;;;;;;5115807;28;20040;-68
2022/09/08 06:24:03;;;;;;;51.47;38.53;;;20.10;99.90;;;;;;5116789;28;20424;-68
2022/09/08 06:26:46;;;;;;;56.05;41.55;;;20.10;99.90;;;;;;5115708;28;20143;-68
2022/09/08 06:29:24;;;;;;;56.72;40.03;;;20.10;99.90;;;;;;5117008;28;20141;-68
2022/09/08 06:31:58;;;;;;;50.03;36.67;;;20.20;99.90;;;;;;5116830;28;20044;-69
2022/09/08 06:34:28;;;;;;;53.28;38.33;;;20.20;99.90;;;;;;5116920;28;20112;-68
2022/09/08 06:37:29;;;;;;;57.70;42.25;;;20.20;99.90;;;;;;5116964;28;20042;-68
2022/09/08 06:40:05;;;;;;;56.63;41.00;;;20.20;99.90;;;;;;5116583;28;20048;-68
2022/09/08 06:42:57;;;;;;;57.05;41.10;;;20.10;99.90;;;;;;5115897;28;20071;-68
2022/09/08 06:45:30;;;;;;;56.80;40.38;;;20.00;99.90;;;;;;5074909;28;20050;-68
2022/09/08 06:48:11;;;;;;;61.90;44.90;;;20.10;99.90;;;;;;5116459;28;20424;-68
2022/09/08 06:50:44;;;;;;;60.47;44.97;;;20.00;99.90;;;;;;5116639;28;20035;-68
2022/09/08 06:53:19;;;;;;;68.85;47.95;;;20.00;99.90;;;;;;5116899;28;20044;-68
2022/09/08 06:56:13;;;;;;;59.92;43.28;;;20.00;99.90;;;;;;5116409;28;20161;-68
2022/09/08 06:58:41;;;;;;;70.20;47.30;;;20.00;99.90;;;;;;5081544;28;20347;-68
2022/09/08 07:01:24;;;;;;;58.83;43.85;;;20.00;99.90;;;;;;5098950;28;20044;-68
2022/09/08 07:04:31;;;;;;;62.45;43.90;;;20.00;99.90;;;;;;5115864;28;20067;-69
2022/09/08 07:07:31;;;;;;;59.28;42.33;;;20.00;99.90;;;;;;5102146;28;20044;-68
2022/09/08 07:10:23;;;;;;;63.33;44.67;;;20.00;99.90;;;;;;5111659;28;20058;-68
2022/09/08 07:13:19;;;;;;;64.13;45.45;;;19.90;99.90;;;;;;5115935;28;20047;-68
2022/09/08 07:16:09;;;;;;;66.03;47.10;;;19.80;99.90;;;;;;5115726;28;20051;-68
2022/09/08 07:18:58;;;;;;;64.13;46.65;;;19.90;99.90;;;;;;5116280;28;20049;-68
2022/09/08 07:21:51;;;;;;;65.18;46.38;;;19.80;99.90;;;;;;5098324;28;20095;-68
2022/09/08 07:24:20;;;;;;;70.22;46.25;;;19.80;99.90;;;;;;5132694;28;20145;-68
2022/09/08 07:26:53;;;;;;;65.22;45.35;;;19.80;99.90;;;;;;5116759;28;20302;-68
2022/09/08 07:29:29;;;;;;;59.58;46.08;;;19.80;99.90;;;;;;5119102;28;20047;-68
2022/09/08 07:31:56;;;;;;;;;;;19.80;99.90;;;;;;5119789;28;20092;-68
2022/09/08 07:34:25;;;;;;;63.33;44.72;;;19.70;99.90;;;;;;5119863;27;19916;-68
2022/09/08 07:37:17;;;;;;;73.10;49.65;;;19.70;99.90;;;;;;5119045;28;20096;-68
2022/09/08 07:40:01;;;;;;;63.85;44.30;;;19.70;99.90;;;;;;5101390;28;20058;-69
2022/09/08 07:42:27;;;;;;;59.75;41.63;;;19.60;99.90;;;;;;5101596;28;20048;-69
2022/09/08 07:45:03;;;;;;;82.82;49.55;;;19.50;99.90;;;;;;5135817;27;20040;-69
2022/09/08 07:47:42;;;;;;;54.92;42.45;;;19.40;99.90;;;;;;5118636;28;20104;-69
2022/09/08 07:53:27;;;;;;;50.60;38.17;;;19.50;99.90;;;;;;5118401;28;20055;-69
2022/09/08 07:55:57;;;;;;;61.20;41.10;;;19.50;99.90;;;;;;5135140;27;20040;-68
2022/09/08 07:58:41;;;;;;;68.78;44.33;;;19.40;99.90;;;;;;5152579;27;20055;-69
2022/09/08 08:01:42;;;;;;;72.90;45.45;;;19.30;99.90;;;;;;5118561;28;20435;-68
2022/09/08 08:04:08;;;;;;;61.58;40.42;;;19.20;99.90;;;;;;5101736;28;20043;-68
2022/09/08 08:06:57;;;;;;;70.18;45.45;;;19.20;99.90;;;;;;5135196;27;20077;-68
2022/09/08 08:09:41;;;;;;;56.83;39.03;;;19.10;99.90;;;;;;5101109;28;20032;-68
2022/09/08 08:12:45;;;;;;;60.05;40.33;;;19.10;99.90;;;;;;5136517;27;20043;-68
2022/09/08 08:15:25;;;;;;;58.40;39.78;;;19.20;99.90;;;;;;5100914;28;20067;-68
2022/09/08 08:18:11;;;;;;;58.53;39.58;;;19.30;99.90;;;;;;5119090;28;20440;-68
2022/09/08 08:20:53;;;;;;;53.70;37.15;;;19.40;99.90;;;;;;5119055;28;20032;-68
2022/09/08 08:23:40;;;;;;;52.38;37.47;;;19.40;99.90;;;;;;5117968;28;20050;-68
2022/09/08 08:26:36;;;;;;;47.42;34.78;;;19.40;99.90;;;;;;5117727;28;20106;-68
2022/09/08 08:29:23;;;;;;;45.95;35.28;;;19.50;99.90;;;;;;5117633;28;20123;-68
2022/09/08 08:32:16;;;;;;;39.42;31.33;;;19.60;99.90;;;;;;5100665;28;20074;-68
2022/09/08 08:34:58;;;;;;;45.65;34.67;;;19.70;99.90;;;;;;5100900;28;20035;-68
2022/09/08 08:37:28;;;;;;;69.20;39.70;;;19.70;99.90;;;;;;5100124;28;20047;-68
2022/09/08 08:39:54;;;;;;;48.95;34.38;;;19.80;99.90;;;;;;5116979;28;20104;-68
2022/09/08 08:42:53;;;;;;;45.85;34.97;;;19.80;99.90;;;;;;5100240;28;20043;-68
2022/09/08 08:45:48;;;;;;;46.58;32.92;;;19.70;99.90;;;;;;5117426;28;20042;-68
2022/09/08 08:48:48;;;;;;;47.15;35.28;;;19.80;99.90;;;;;;5055836;28;20079;-68
2022/09/08 08:51:16;;;;;;;44.60;33.83;;;19.80;99.90;;;;;;5118525;28;20118;-68
2022/09/08 08:54:20;;;;;;;64.78;42.88;;;19.80;99.90;;;;;;5134547;27;20044;-68
2022/09/08 08:57:20;;;;;;;47.30;35.30;;;19.80;99.90;;;;;;5061954;28;20066;-68
2022/09/08 08:59:52;;;;;;;46.58;35.38;;;19.90;99.90;;;;;;5075768;28;20432;-68
2022/09/08 09:02:46;;;;;;;53.45;39.30;;;20.00;99.90;;;;;;5117461;28;20369;-69
2022/09/08 09:05:44;;;;;;;50.97;37.70;;;20.10;99.90;;;;;;5079663;27;20052;-69
2022/09/08 09:08:28;;;;;;;58.78;40.53;;;20.10;99.90;;;;;;5118144;28;20027;-68
2022/09/08 09:11:14;;;;;;;62.33;42.75;;;20.10;99.90;;;;;;5118146;28;20431;-68
2022/09/08 09:13:57;;;;;;;57.03;39.47;;;19.90;99.90;;;;;;5117910;28;20074;-69
2022/09/08 09:16:32;;;;;;;67.70;42.33;;;20.00;99.90;;;;;;5118122;28;20079;-68
2022/09/08 09:19:22;;;;;;;49.63;35.97;;;19.90;99.90;;;;;;5118062;28;20043;-68
2022/09/08 09:21:53;;;;;;;55.67;36.60;;;19.70;99.90;;;;;;5117641;28;20043;-68
2022/09/08 09:24:36;;;;;;;42.97;28.88;;;19.90;99.90;;;;;;5117895;28;20126;-69
2022/09/08 09:27:16;;;;;;;43.40;29.77;;;20.00;99.90;;;;;;5116508;28;20310;-68
2022/09/08 09:29:42;;;;;;;28.75;22.88;;;20.10;99.90;;;;;;5117687;28;20044;-68
2022/09/08 09:32:32;;;;;;;27.83;20.67;;;20.20;99.90;;;;;;5117534;28;20047;-68
2022/09/08 09:35:35;;;;;;;32.67;20.60;;;20.20;99.90;;;;;;5117680;28;20371;-68
2022/09/08 09:38:49;;;;;;;30.77;20.23;;;20.00;99.90;;;;;;5117435;28;20039;-68
2022/09/08 09:41:31;;;;;;;26.58;19.67;;;19.90;99.90;;;;;;5099348;28;20127;-68
2022/09/08 09:44:14;;;;;;;25.77;18.35;;;19.70;99.90;;;;;;5117341;28;20325;-68
2022/09/08 09:46:59;;;;;;;25.17;18.63;;;19.50;99.90;;;;;;5117535;28;20039;-68
2022/09/08 09:50:16;;;;;;;28.48;20.42;;;19.40;99.90;;;;;;5117637;28;20035;-68
2022/09/08 09:52:50;;;;;;;26.67;19.33;;;19.20;99.90;;;;;;5117227;28;20043;-68
2022/09/08 09:55:25;;;;;;;25.67;17.80;;;19.40;99.90;;;;;;5116806;28;20126;-68
2022/09/08 09:58:27;;;;;;;29.92;20.30;;;19.50;99.90;;;;;;5117360;28;20071;-68
2022/09/08 10:01:19;;;;;;;28.38;19.23;;;19.60;99.90;;;;;;5117092;28;20039;-68
2022/09/08 10:04:14;;;;;;;22.67;17.23;;;19.80;99.90;;;;;;5085643;28;20130;-69
2022/09/08 10:07:18;;;;;;;34.50;23.15;;;19.90;99.90;;;;;;5116573;28;20449;-68
2022/09/08 10:10:12;;;;;;;28.13;20.02;;;19.90;99.90;;;;;;5116991;28;20430;-68
2022/09/08 10:13:16;;;;;;;17.85;14.13;;;19.80;99.90;;;;;;5117355;28;20115;-68
2022/09/08 10:16:24;;;;;;;15.35;11.82;;;19.70;99.90;;;;;;5116845;28;20394;-68
2022/09/08 10:19:07;;;;;;;15.70;11.45;;;19.50;99.90;;;;;;5116931;28;20478;-68
2022/09/08 10:21:51;;;;;;;14.57;10.98;;;19.70;99.90;;;;;;5116907;28;20039;-68
2022/09/08 10:24:44;;;;;;;12.63;8.80;;;19.80;99.90;;;;;;5117185;28;20069;-68
2022/09/08 10:27:19;;;;;;;14.50;10.38;;;20.00;99.90;;;;;;5116525;28;20096;-69
2022/09/08 10:29:56;;;;;;;12.50;9.97;;;20.10;99.90;;;;;;5117160;28;20035;-68
2022/09/08 10:32:48;;;;;;;9.00;7.88;;;20.10;99.90;;;;;;5116724;28;20337;-68
2022/09/08 10:35:28;;;;;;;12.57;8.68;;;20.10;99.90;;;;;;5116978;28;20071;-68
2022/09/08 10:38:19;;;;;;;10.50;8.07;;;20.20;99.90;;;;;;5117071;28;20051;-68
2022/09/08 10:40:47;;;;;;;9.00;6.63;;;20.30;99.90;;;;;;5116494;28;20048;-68
2022/09/08 10:43:34;;;;;;;7.65;5.55;;;20.10;99.90;;;;;;5116802;28;20035;-68
2022/09/08 10:46:34;;;;;;;7.25;5.70;;;20.00;99.90;;;;;;5116925;28;20040;-68
2022/09/08 10:49:20;;;;;;;5.70;4.57;;;20.10;99.90;;;;;;5116519;28;20047;-68
2022/09/08 10:52:01;;;;;;;;;;;20.00;99.90;;;;;;5117149;28;20082;-68
2022/09/08 10:55:12;;;;;;;5.20;4.70;;;20.10;99.90;;;;;;5117202;28;19915;-68
2022/09/08 10:57:56;;;;;;;7.32;4.85;;;20.10;99.90;;;;;;5087799;28;20101;-68
2022/09/08 11:00:23;;;;;;;6.40;4.57;;;20.20;99.90;;;;;;5116727;28;20317;-68
2022/09/08 11:03:01;;;;;;;4.68;3.42;;;20.20;99.90;;;;;;5119989;28;20062;-68
2022/09/08 11:05:39;;;;;;;4.82;4.03;;;20.10;99.90;;;;;;5119639;28;20050;-68
2022/09/08 11:08:19;;;;;;;5.30;4.30;;;20.20;99.90;;;;;;5119649;28;20047;-68
2022/09/08 11:11:03;;;;;;;5.72;4.15;;;20.20;99.90;;;;;;5120185;28;20036;-68
2022/09/08 11:13:42;;;;;;;5.40;3.90;;;20.20;99.90;;;;;;5120844;27;20046;-68
2022/09/08 11:16:35;;;;;;;5.30;3.60;;;20.00;99.90;;;;;;5120272;28;20036;-68
2022/09/08 11:19:25;;;;;;;5.85;3.30;;;20.00;99.90;;;;;;5120282;28;20371;-68
2022/09/08 11:22:22;;;;;;;5.43;3.88;;;20.00;99.90;;;;;;5120244;28;20395;-68
2022/09/08 11:25:18;;;;;;;4.75;2.78;;;20.00;99.90;;;;;;5120087;28;20036;-68
2022/09/08 11:28:06;;;;;;;3.60;2.88;;;20.10;99.90;;;;;;5120115;28;20031;-69
2022/09/08 11:30:40;;;;;;;4.70;2.22;;;20.10;99.90;;;;;;5119927;28;20378;-68
2022/09/08 11:33:40;;;;;;;6.18;3.90;;;20.10;99.90;;;;;;5120195;28;20044;-69
2022/09/08 11:36:11;;;;;;;4.40;2.20;;;20.10;99.90;;;;;;5119804;28;20039;-69
2022/09/08 11:39:15;;;;;;;3.25;2.35;;;19.80;99.90;;;;;;5119939;28;20096;-68
2022/09/08 11:42:03;;;;;;;5.60;2.70;;;19.80;99.90;;;;;;5119525;28;20122;-69
2022/09/08 11:44:43;;;;;;;5.68;2.10;;;19.80;99.90;;;;;;5119568;28;20437;-69
2022/09/08 11:47:18;;;;;;;5.78;3.20;;;19.80;99.90;;;;;;5120064;28;20059;-68
2022/09/08 11:49:59;;;;;;;5.00;2.42;;;19.90;99.90;;;;;;5119634;28;20115;-68
2022/09/08 11:52:44;;;;;;;5.68;2.47;;;19.90;99.90;;;;;;5118844;28;20088;-69
2022/09/08 11:55:25;;;;;;;2.28;1.63;;;19.90;99.90;;;;;;5119108;28;20039;-68
2022/09/08 11:58:29;;;;;;;4.60;2.30;;;19.80;99.90;;;;;;5118657;28;20131;-68
2022/09/08 12:01:13;;;;;;;7.93;2.53;;;19.80;99.90;;;;;;5119584;28;20100;-68
2022/09/08 12:03:56;;;;;;;3.80;1.65;;;19.80;99.90;;;;;;5119345;28;20031;-68
2022/09/08 12:06:25;;;;;;;5.32;1.67;;;19.80;99.90;;;;;;5119498;28;20043;-68
2022/09/08 12:09:06;;;;;;;4.65;1.88;;;19.70;99.90;;;;;;5119102;28;20135;-68
2022/09/08 12:11:38;;;;;;;3.97;1.73;;;19.70;99.90;;;;;;5119374;28;20054;-69
2022/09/08 12:14:22;;;;;;;3.47;2.10;;;19.80;99.90;;;;;;5118268;28;20039;-68
2022/09/08 12:17:19;;;;;;;3.50;1.67;;;19.80;99.90;;;;;;5119187;28;20118;-68
2022/09/08 12:20:10;;;;;;;5.45;1.77;;;19.80;99.90;;;;;;5119222;28;20047;-68
2022/09/08 12:22:58;;;;;;;2.88;1.50;;;19.90;99.90;;;;;;5119292;28;20071;-68
2022/09/08 12:26:01;;;;;;;4.53;1.77;;;20.00;99.90;;;;;;5118472;28;20059;-69
2022/09/08 12:28:30;;;;;;;4.63;1.85;;;20.00;99.90;;;;;;5119023;28;20040;-68
2022/09/08 12:31:13;;;;;;;3.15;1.80;;;20.00;99.90;;;;;;5118676;28;20424;-68
2022/09/08 12:33:55;;;;;;;2.65;1.23;;;20.10;99.90;;;;;;5119095;28;20043;-68
2022/09/08 12:36:46;;;;;;;2.92;1.50;;;20.10;99.90;;;;;;5118690;28;20428;-68
2022/09/08 12:39:32;;;;;;;6.32;1.95;;;20.20;99.90;;;;;;5118479;28;20172;-68
2022/09/08 12:42:31;;;;;;;2.63;1.60;;;20.30;99.90;;;;;;5118764;28;20055;-68
2022/09/08 12:45:11;;;;;;;4.15;1.73;;;20.20;99.90;;;;;;5118634;28;20097;-68
2022/09/08 12:47:58;;;;;;;3.70;2.25;;;20.30;99.90;;;;;;5118703;28;20088;-68
2022/09/08 12:50:39;;;;;;;5.32;1.70;;;20.30;99.90;;;;;;5118657;28;20121;-69
2022/09/08 12:53:20;;;;;;;5.03;2.38;;;20.10;99.90;;;;;;5118288;28;20537;-68
2022/09/08 12:55:55;;;;;;;4.40;2.00;;;20.20;99.90;;;;;;5118102;28;20074;-68
2022/09/08 12:58:22;;;;;;;3.88;1.92;;;20.20;99.90;;;;;;5118559;28;20043;-68
2022/09/08 13:01:19;;;;;;;7.35;3.35;;;20.30;99.90;;;;;;5118168;28;20036;-69
2022/09/08 13:03:47;;;;;;;7.88;3.72;;;20.30;99.90;;;;;;5107440;28;20051;-68
2022/09/08 13:06:46;;;;;;;10.20;4.15;;;20.40;99.90;;;;;;5118123;28;20040;-68
2022/09/08 13:09:24;;;;;;;6.40;3.08;;;20.20;99.90;;;;;;5118063;28;20071;-69
2022/09/08 13:12:00;;;;;;;5.75;4.00;;;20.10;99.90;;;;;;5118248;28;20048;-68
2022/09/08 13:14:49;;;;;;;5.75;3.97;;;20.10;99.90;;;;;;5118120;28;20047;-69
2022/09/08 13:17:37;;;;;;;6.57;3.88;;;20.20;99.90;;;;;;5118291;28;20150;-68
2022/09/08 13:20:29;;;;;;;5.40;3.50;;;20.40;99.90;;;;;;5117830;28;20047;-68
2022/09/08 13:23:09;;;;;;;9.48;5.30;;;20.40;99.90;;;;;;5117757;28;20420;-68
2022/09/08 13:25:53;;;;;;;5.88;4.07;;;20.40;99.90;;;;;;5117114;28;20451;-68
2022/09/08 13:28:56;;;;;;;6.75;3.58;;;20.40;99.90;;;;;;5117821;28;20491;-68